Terminal Aerodrome Forecast
Issued by NWS Austin/San Antonio, TX

Home | Current Version | Previous Version | Text Only | Print | Product List | Glossary On
Versions: 1 2 3 4 5 6 7 8 9 10 11 12 13 14 15 16 17 18 19
000
FTUS44 KEWX 301122
TAFDRT
TAF
KDRT 301122Z 3012/0112 09004KT P6SM OVC027
      TEMPO 3014/3016 BKN010
     FM301800 14012KT P6SM SCT040 SCT250
     FM010100 11007KT P6SM FEW050 SCT250
     FM011000 11007KT P6SM BKN010=

USA.gov is the U.S. government's official web portal to all federal, state and local government web resources and services.